sensor_id;sensor_type;location;lat;lon;timestamp;pressure;altitude;pressure_sealevel;temperature;humidity
51123;BME280;37162;41.724;13.346;2022-07-29T00:01:20;96616.75;;;25.96;61.04
51123;BME280;37162;41.724;13.346;2022-07-29T00:03:46;96597.88;;;25.86;61.08
51123;BME280;37162;41.724;13.346;2022-07-29T00:06:11;96607.88;;;25.91;60.88
51123;BME280;37162;41.724;13.346;2022-07-29T00:08:37;96607.00;;;25.95;61.07
51123;BME280;37162;41.724;13.346;2022-07-29T00:11:02;96608.91;;;25.95;61.13
51123;BME280;37162;41.724;13.346;2022-07-29T00:13:28;96610.00;;;25.94;61.17
51123;BME280;37162;41.724;13.346;2022-07-29T00:15:53;96612.72;;;25.94;61.17
51123;BME280;37162;41.724;13.346;2022-07-29T00:18:18;96601.13;;;25.88;61.22
51123;BME280;37162;41.724;13.346;2022-07-29T00:20:44;96611.13;;;25.93;61.18
51123;BME280;37162;41.724;13.346;2022-07-29T00:23:09;96617.38;;;25.93;60.97
51123;BME280;37162;41.724;13.346;2022-07-29T00:25:35;96608.16;;;25.89;61.05
51123;BME280;37162;41.724;13.346;2022-07-29T00:28:00;96613.84;;;25.93;60.92
51123;BME280;37162;41.724;13.346;2022-07-29T00:30:25;96599.41;;;25.92;60.85
51123;BME280;37162;41.724;13.346;2022-07-29T00:32:51;96607.88;;;25.91;60.82
51123;BME280;37162;41.724;13.346;2022-07-29T00:35:16;96610.59;;;25.91;60.77
51123;BME280;37162;41.724;13.346;2022-07-29T00:38:00;96619.88;;;25.90;60.82
51123;BME280;37162;41.724;13.346;2022-07-29T00:40:25;96611.69;;;25.90;60.81
51123;BME280;37162;41.724;13.346;2022-07-29T00:42:52;96600.81;;;25.90;60.79
51123;BME280;37162;41.724;13.346;2022-07-29T00:45:18;96607.06;;;25.90;61.04
51123;BME280;37162;41.724;13.346;2022-07-29T00:47:44;96607.06;;;25.90;60.98
51123;BME280;37162;41.724;13.346;2022-07-29T00:50:11;96594.56;;;25.89;60.83
51123;BME280;37162;41.724;13.346;2022-07-29T00:52:38;96598.09;;;25.90;60.75
51123;BME280;37162;41.724;13.346;2022-07-29T00:55:06;96600.81;;;25.90;60.78
51123;BME280;37162;41.724;13.346;2022-07-29T00:57:33;96589.47;;;25.83;60.64
51123;BME280;37162;41.724;13.346;2022-07-29T00:59:58;96596.75;;;25.87;60.55
51123;BME280;37162;41.724;13.346;2022-07-29T01:02:24;96598.41;;;25.88;60.61
51123;BME280;37162;41.724;13.346;2022-07-29T01:04:50;96594.88;;;25.88;60.35
51123;BME280;37162;41.724;13.346;2022-07-29T01:07:16;96581.91;;;25.80;60.37
51123;BME280;37162;41.724;13.346;2022-07-29T01:09:43;96595.69;;;25.88;60.65
51123;BME280;37162;41.724;13.346;2022-07-29T01:12:10;96597.06;;;25.86;60.50
51123;BME280;37162;41.724;13.346;2022-07-29T01:14:36;96603.84;;;25.88;60.67
51123;BME280;37162;41.724;13.346;2022-07-29T01:17:08;96594.88;;;25.88;60.86
51123;BME280;37162;41.724;13.346;2022-07-29T01:19:53;96592.94;;;25.88;60.62
51123;BME280;37162;41.724;13.346;2022-07-29T01:25:40;96592.41;;;25.86;60.71
51123;BME280;37162;41.724;13.346;2022-07-29T01:30:57;96580.31;;;25.79;60.50
51123;BME280;37162;41.724;13.346;2022-07-29T01:33:25;96587.28;;;25.85;60.54
51123;BME280;37162;41.724;13.346;2022-07-29T01:36:22;96584.56;;;25.85;60.57
51123;BME280;37162;41.724;13.346;2022-07-29T01:39:08;96586.47;;;25.84;60.42
51123;BME280;37162;41.724;13.346;2022-07-29T01:41:38;96590.00;;;25.85;60.67
51123;BME280;37162;41.724;13.346;2022-07-29T01:44:13;96585.66;;;25.84;60.51
51123;BME280;37162;41.724;13.346;2022-07-29T01:46:45;96565.06;;;25.78;60.53
51123;BME280;37162;41.724;13.346;2022-07-29T01:49:17;96582.72;;;25.80;60.78
51123;BME280;37162;41.724;13.346;2022-07-29T01:51:58;96586.47;;;25.84;60.63
51123;BME280;37162;41.724;13.346;2022-07-29T01:54:42;96579.41;;;25.83;60.54
51123;BME280;37162;41.724;13.346;2022-07-29T01:57:11;96584.84;;;25.83;60.51
51123;BME280;37162;41.724;13.346;2022-07-29T01:59:38;96577.50;;;25.84;60.49
51123;BME280;37162;41.724;13.346;2022-07-29T02:02:06;96582.13;;;25.83;60.53
51123;BME280;37162;41.724;13.346;2022-07-29T02:04:35;96544.06;;;25.59;60.41
51123;BME280;37162;41.724;13.346;2022-07-29T02:07:05;96582.13;;;25.83;60.42
51123;BME280;37162;41.724;13.346;2022-07-29T02:09:34;96574.78;;;25.84;60.67
51123;BME280;37162;41.724;13.346;2022-07-29T02:12:02;96577.50;;;25.84;60.53
51123;BME280;37162;41.724;13.346;2022-07-29T02:14:31;96582.94;;;25.84;60.68
51123;BME280;37162;41.724;13.346;2022-07-29T02:17:00;96567.69;;;25.83;60.35
51123;BME280;37162;41.724;13.346;2022-07-29T02:19:27;96564.78;;;25.79;60.78
51123;BME280;37162;41.724;13.346;2022-07-29T02:21:56;96565.34;;;25.76;60.56
51123;BME280;37162;41.724;13.346;2022-07-29T02:24:24;96574.25;;;25.82;60.44
51123;BME280;37162;41.724;13.346;2022-07-29T02:26:51;96572.34;;;25.82;60.30
51123;BME280;37162;41.724;13.346;2022-07-29T02:29:23;96571.53;;;25.82;60.17
51123;BME280;37162;41.724;13.346;2022-07-29T02:31:50;96581.59;;;25.81;60.12
51123;BME280;37162;41.724;13.346;2022-07-29T02:34:18;96580.81;;;25.81;60.14
51123;BME280;37162;41.724;13.346;2022-07-29T02:36:45;96583.53;;;25.81;60.10
51123;BME280;37162;41.724;13.346;2022-07-29T02:39:12;96591.69;;;25.81;60.10
51123;BME280;37162;41.724;13.346;2022-07-29T02:41:47;96591.69;;;25.81;60.23
51123;BME280;37162;41.724;13.346;2022-07-29T02:44:16;96582.50;;;25.77;60.33
51123;BME280;37162;41.724;13.346;2022-07-29T02:46:47;96587.06;;;25.81;60.51
51123;BME280;37162;41.724;13.346;2022-07-29T02:49:30;96590.06;;;25.80;60.36
51123;BME280;37162;41.724;13.346;2022-07-29T02:52:03;96598.25;;;25.80;60.37
51123;BME280;37162;41.724;13.346;2022-07-29T02:54:37;96603.97;;;25.78;60.18
51123;BME280;37162;41.724;13.346;2022-07-29T02:57:11;96583.94;;;25.69;60.15
51123;BME280;37162;41.724;13.346;2022-07-29T02:59:40;96595.78;;;25.78;60.07
51123;BME280;37162;41.724;13.346;2022-07-29T03:02:08;96592.25;;;25.78;60.06
51123;BME280;37162;41.724;13.346;2022-07-29T03:04:35;96594.19;;;25.77;60.09
51123;BME280;37162;41.724;13.346;2022-07-29T03:07:02;96588.75;;;25.77;60.21
51123;BME280;37162;41.724;13.346;2022-07-29T03:09:29;96587.63;;;25.78;60.11
51123;BME280;37162;41.724;13.346;2022-07-29T03:11:56;96589.53;;;25.78;60.17
51123;BME280;37162;41.724;13.346;2022-07-29T03:14:22;96595.00;;;25.78;60.39
51123;BME280;37162;41.724;13.346;2022-07-29T03:16:49;96575.25;;;25.67;60.37
51123;BME280;37162;41.724;13.346;2022-07-29T03:19:16;96594.47;;;25.76;60.22
51123;BME280;37162;41.724;13.346;2022-07-29T03:21:42;96594.47;;;25.76;60.22
51123;BME280;37162;41.724;13.346;2022-07-29T03:24:07;96593.38;;;25.77;60.15
51123;BME280;37162;41.724;13.346;2022-07-29T03:26:33;96599.94;;;25.76;60.04
51123;BME280;37162;41.724;13.346;2022-07-29T03:28:58;96600.72;;;25.76;59.90
51123;BME280;37162;41.724;13.346;2022-07-29T03:31:23;96599.94;;;25.76;60.02
51123;BME280;37162;41.724;13.346;2022-07-29T03:33:49;96608.38;;;25.74;60.38
51123;BME280;37162;41.724;13.346;2022-07-29T03:36:14;96607.25;;;25.75;60.20
51123;BME280;37162;41.724;13.346;2022-07-29T03:38:41;96607.25;;;25.75;60.11
51123;BME280;37162;41.724;13.346;2022-07-29T03:41:10;96607.25;;;25.75;60.15
51123;BME280;37162;41.724;13.346;2022-07-29T03:43:38;96609.97;;;25.75;60.27
51123;BME280;37162;41.724;13.346;2022-07-29T03:46:10;96612.69;;;25.75;60.45
51123;BME280;37162;41.724;13.346;2022-07-29T03:48:39;96615.41;;;25.75;60.15
51123;BME280;37162;41.724;13.346;2022-07-29T03:51:07;96612.97;;;25.73;60.05
51123;BME280;37162;41.724;13.346;2022-07-29T03:53:33;96601.16;;;25.64;59.84
51123;BME280;37162;41.724;13.346;2022-07-29T03:56:01;96608.63;;;25.72;59.79
51123;BME280;37162;41.724;13.346;2022-07-29T03:58:27;96601.59;;;25.71;59.70
51123;BME280;37162;41.724;13.346;2022-07-29T04:00:55;96602.38;;;25.72;59.65
51123;BME280;37162;41.724;13.346;2022-07-29T04:03:22;96608.13;;;25.70;59.82
51123;BME280;37162;41.724;13.346;2022-07-29T04:06:05;96594.69;;;25.60;59.76
51123;BME280;37162;41.724;13.346;2022-07-29T04:08:32;96608.94;;;25.71;60.08
51123;BME280;37162;41.724;13.346;2022-07-29T04:10:58;96612.78;;;25.70;60.01
51123;BME280;37162;41.724;13.346;2022-07-29T04:13:24;96614.38;;;25.71;60.11
51123;BME280;37162;41.724;13.346;2022-07-29T04:15:49;96611.66;;;25.71;60.06
51123;BME280;37162;41.724;13.346;2022-07-29T04:18:15;96619.81;;;25.71;60.14
51123;BME280;37162;41.724;13.346;2022-07-29T04:20:40;96624.47;;;25.70;59.68
51123;BME280;37162;41.724;13.346;2022-07-29T04:23:06;96634.53;;;25.70;59.65
51123;BME280;37162;41.724;13.346;2022-07-29T04:25:31;96635.34;;;25.70;59.82
51123;BME280;37162;41.724;13.346;2022-07-29T04:27:56;96629.91;;;25.70;59.83
51123;BME280;37162;41.724;13.346;2022-07-29T04:30:29;96628.28;;;25.69;59.87
51123;BME280;37162;41.724;13.346;2022-07-29T04:32:54;96625.56;;;25.69;59.69
51123;BME280;37162;41.724;13.346;2022-07-29T04:35:20;96631.00;;;25.69;59.69
51123;BME280;37162;41.724;13.346;2022-07-29T04:37:46;96610.69;;;25.62;59.94
51123;BME280;37162;41.724;13.346;2022-07-29T04:40:11;96623.66;;;25.70;59.77
51123;BME280;37162;41.724;13.346;2022-07-29T04:42:37;96619.31;;;25.69;59.94
51123;BME280;37162;41.724;13.346;2022-07-29T04:45:03;96613.56;;;25.70;59.94
51123;BME280;37162;41.724;13.346;2022-07-29T04:47:29;96608.94;;;25.71;59.75
51123;BME280;37162;41.724;13.346;2022-07-29T04:49:54;96600.78;;;25.71;59.64
51123;BME280;37162;41.724;13.346;2022-07-29T04:52:21;96603.50;;;25.71;59.30
51123;BME280;37162;41.724;13.346;2022-07-29T04:54:47;96603.50;;;25.71;59.47
51123;BME280;37162;41.724;13.346;2022-07-29T04:57:12;96601.09;;;25.69;59.16
51123;BME280;37162;41.724;13.346;2022-07-29T04:59:38;96607.03;;;25.71;59.10
51123;BME280;37162;41.724;13.346;2022-07-29T05:02:03;96609.75;;;25.71;59.05
51123;BME280;37162;41.724;13.346;2022-07-29T05:04:28;96613.28;;;25.72;59.35
51123;BME280;37162;41.724;13.346;2022-07-29T05:06:54;96615.19;;;25.71;59.00
51123;BME280;37162;41.724;13.346;2022-07-29T05:09:19;96616.31;;;25.70;58.14
51123;BME280;37162;41.724;13.346;2022-07-29T05:11:45;96614.88;;;25.73;58.92
51123;BME280;37162;41.724;13.346;2022-07-29T05:14:10;96621.22;;;25.68;58.66
51123;BME280;37162;41.724;13.346;2022-07-29T05:16:36;96632.31;;;25.72;58.66
51123;BME280;37162;41.724;13.346;2022-07-29T05:19:01;96637.84;;;25.67;58.45
51123;BME280;37162;41.724;13.346;2022-07-29T05:21:27;96649.47;;;25.72;58.51
51123;BME280;37162;41.724;13.346;2022-07-29T05:23:52;96648.41;;;25.68;57.82
51123;BME280;37162;41.724;13.346;2022-07-29T05:26:18;96654.09;;;25.72;58.22
51123;BME280;37162;41.724;13.346;2022-07-29T05:28:43;96656.81;;;25.72;58.03
51123;BME280;37162;41.724;13.346;2022-07-29T05:31:09;96653.88;;;25.68;58.40
51123;BME280;37162;41.724;13.346;2022-07-29T05:33:34;96661.16;;;25.73;58.37
51123;BME280;37162;41.724;13.346;2022-07-29T05:35:59;96670.97;;;25.74;58.30
51123;BME280;37162;41.724;13.346;2022-07-29T05:38:25;96670.13;;;25.73;58.24
51123;BME280;37162;41.724;13.346;2022-07-29T05:40:50;96656.09;;;25.66;58.12
51123;BME280;37162;41.724;13.346;2022-07-29T05:43:16;96675.28;;;25.75;58.32
51123;BME280;37162;41.724;13.346;2022-07-29T05:45:41;96664.41;;;25.75;58.09
51123;BME280;37162;41.724;13.346;2022-07-29T05:48:07;96652.78;;;25.69;58.10
51123;BME280;37162;41.724;13.346;2022-07-29T05:50:32;96653.06;;;25.68;57.91
51123;BME280;37162;41.724;13.346;2022-07-29T05:52:58;96644.88;;;25.68;57.88
51123;BME280;37162;41.724;13.346;2022-07-29T05:55:23;96666.84;;;25.77;57.57
51123;BME280;37162;41.724;13.346;2022-07-29T05:57:48;96663.84;;;25.78;57.56
51123;BME280;37162;41.724;13.346;2022-07-29T06:00:14;96674.44;;;25.80;57.68
51123;BME280;37162;41.724;13.346;2022-07-29T06:02:40;96668.19;;;25.79;57.79
51123;BME280;37162;41.724;13.346;2022-07-29T06:05:05;96675.25;;;25.80;57.78
51123;BME280;37162;41.724;13.346;2022-07-29T06:07:31;96674.44;;;25.80;57.76
51123;BME280;37162;41.724;13.346;2022-07-29T06:09:57;96680.41;;;25.82;57.84
51123;BME280;37162;41.724;13.346;2022-07-29T06:12:23;96680.41;;;25.82;57.68
51123;BME280;37162;41.724;13.346;2022-07-29T06:14:48;96688.00;;;25.85;57.89
51123;BME280;37162;41.724;13.346;2022-07-29T06:17:16;96682.84;;;25.83;57.13
51123;BME280;37162;41.724;13.346;2022-07-29T06:19:41;96679.28;;;25.83;56.47
51123;BME280;37162;41.724;13.346;2022-07-29T06:22:06;96674.72;;;25.78;57.38
51123;BME280;37162;41.724;13.346;2022-07-29T06:24:32;96686.06;;;25.85;57.43
51123;BME280;37162;41.724;13.346;2022-07-29T06:26:57;96689.59;;;25.86;57.54
51123;BME280;37162;41.724;13.346;2022-07-29T06:29:23;96695.59;;;25.88;57.92
51123;BME280;37162;41.724;13.346;2022-07-29T06:31:48;96678.47;;;25.82;58.69
51123;BME280;37162;41.724;13.346;2022-07-29T06:34:14;96694.47;;;25.89;58.89
51123;BME280;37162;41.724;13.346;2022-07-29T06:36:39;96699.38;;;25.87;57.45
51123;BME280;37162;41.724;13.346;2022-07-29T06:39:08;96693.94;;;25.87;57.08
51123;BME280;37162;41.724;13.346;2022-07-29T06:41:34;96694.75;;;25.87;57.32
51123;BME280;37162;41.724;13.346;2022-07-29T06:43:59;96698.81;;;25.90;57.46
51123;BME280;37162;41.724;13.346;2022-07-29T06:46:25;96701.03;;;25.88;56.85
51123;BME280;37162;41.724;13.346;2022-07-29T06:48:51;96700.72;;;25.89;57.50
51123;BME280;37162;41.724;13.346;2022-07-29T06:51:17;96701.53;;;25.90;58.22
51123;BME280;37162;41.724;13.346;2022-07-29T06:53:43;96702.28;;;25.95;59.25
51123;BME280;37162;41.724;13.346;2022-07-29T06:56:09;96695.78;;;25.91;59.74
51123;BME280;37162;41.724;13.346;2022-07-29T06:58:35;96690.41;;;25.86;59.25
51123;BME280;37162;41.724;13.346;2022-07-29T07:01:03;96701.16;;;25.96;59.71
51123;BME280;37162;41.724;13.346;2022-07-29T07:03:29;96693.59;;;25.93;58.60
51123;BME280;37162;41.724;13.346;2022-07-29T07:05:54;96698.16;;;25.98;59.16
51123;BME280;37162;41.724;13.346;2022-07-29T07:08:20;96705.22;;;25.99;58.75
51123;BME280;37162;41.724;13.346;2022-07-29T07:10:47;96699.25;;;25.97;58.39
51123;BME280;37162;41.724;13.346;2022-07-29T07:24:03;96704.66;;;26.59;58.17
51123;BME280;37162;41.724;13.346;2022-07-29T07:26:28;96715.19;;;26.46;58.66
51123;BME280;37162;41.724;13.346;2022-07-29T07:28:54;96709.16;;;26.31;59.25
51123;BME280;37162;41.724;13.346;2022-07-29T07:31:19;96715.19;;;26.28;59.40
51123;BME280;37162;41.724;13.346;2022-07-29T07:33:45;96715.75;;;26.24;59.75
51123;BME280;37162;41.724;13.346;2022-07-29T07:36:10;96708.84;;;26.13;59.35
51123;BME280;37162;41.724;13.346;2022-07-29T07:38:36;96713.41;;;26.18;58.50
51123;BME280;37162;41.724;13.346;2022-07-29T07:41:01;96717.44;;;26.20;59.73
51123;BME280;37162;41.724;13.346;2022-07-29T07:43:27;96707.38;;;26.21;59.97
51123;BME280;37162;41.724;13.346;2022-07-29T07:45:52;96710.69;;;26.18;58.80
51123;BME280;37162;41.724;13.346;2022-07-29T07:48:18;96703.63;;;26.17;60.17
51123;BME280;37162;41.724;13.346;2022-07-29T07:50:43;96714.44;;;26.22;60.34
51123;BME280;37162;41.724;13.346;2022-07-29T07:53:09;96702.06;;;26.11;60.14
51123;BME280;37162;41.724;13.346;2022-07-29T07:55:40;96719.09;;;26.21;59.35
51123;BME280;37162;41.724;13.346;2022-07-29T07:58:06;96715.56;;;26.21;59.12
51123;BME280;37162;41.724;13.346;2022-07-29T08:00:31;96717.97;;;26.22;58.76
51123;BME280;37162;41.724;13.346;2022-07-29T08:02:58;96719.81;;;26.27;59.80
51123;BME280;37162;41.724;13.346;2022-07-29T08:05:23;96719.00;;;26.27;60.05
51123;BME280;37162;41.724;13.346;2022-07-29T08:07:49;96712.84;;;26.21;60.42
51123;BME280;37162;41.724;13.346;2022-07-29T08:10:16;96713.56;;;26.27;60.13
51123;BME280;37162;41.724;13.346;2022-07-29T08:13:06;96711.94;;;26.25;60.43
51123;BME280;37162;41.724;13.346;2022-07-29T08:15:32;96696.84;;;26.14;60.27
51123;BME280;37162;41.724;13.346;2022-07-29T08:17:58;96694.72;;;26.11;59.92
51123;BME280;37162;41.724;13.346;2022-07-29T08:20:23;96723.13;;;26.24;60.25
51123;BME280;37162;41.724;13.346;2022-07-29T08:22:49;96717.66;;;26.24;59.88
51123;BME280;37162;41.724;13.346;2022-07-29T08:25:15;96720.94;;;26.26;60.06
51123;BME280;37162;41.724;13.346;2022-07-29T08:27:40;96722.00;;;26.25;59.86
51123;BME280;37162;41.724;13.346;2022-07-29T08:30:06;96715.47;;;26.26;59.65
51123;BME280;37162;41.724;13.346;2022-07-29T08:32:32;96715.19;;;26.28;59.67
51123;BME280;37162;41.724;13.346;2022-07-29T08:34:57;96722.22;;;26.29;60.22
51123;BME280;37162;41.724;13.346;2022-07-29T08:37:22;96715.69;;;26.30;60.37
51123;BME280;37162;41.724;13.346;2022-07-29T08:39:48;96721.97;;;26.30;60.54
51123;BME280;37162;41.724;13.346;2022-07-29T08:42:14;96715.19;;;26.28;59.68
51123;BME280;37162;41.724;13.346;2022-07-29T08:44:42;96722.47;;;26.32;60.26
51123;BME280;37162;41.724;13.346;2022-07-29T08:47:07;96725.19;;;26.32;60.08
51123;BME280;37162;41.724;13.346;2022-07-29T08:49:34;96720.25;;;26.34;60.40
51123;BME280;37162;41.724;13.346;2022-07-29T08:52:01;96716.72;;;26.34;60.28
51123;BME280;37162;41.724;13.346;2022-07-29T08:54:27;96714.78;;;26.34;60.34
51123;BME280;37162;41.724;13.346;2022-07-29T08:56:53;96714.00;;;26.34;59.82
51123;BME280;37162;41.724;13.346;2022-07-29T08:59:22;96718.84;;;26.37;60.14
51123;BME280;37162;41.724;13.346;2022-07-29T09:01:48;96712.28;;;26.38;60.39
51123;BME280;37162;41.724;13.346;2022-07-29T09:04:18;96713.91;;;26.39;60.09
51123;BME280;37162;41.724;13.346;2022-07-29T09:06:46;96712.81;;;26.40;60.13
51123;BME280;37162;41.724;13.346;2022-07-29T09:09:13;96705.00;;;26.33;60.20
51123;BME280;37162;41.724;13.346;2022-07-29T09:11:39;96718.50;;;26.43;60.12
51123;BME280;37162;41.724;13.346;2022-07-29T09:14:05;96700.91;;;26.36;60.08
51123;BME280;37162;41.724;13.346;2022-07-29T09:19:22;96718.44;;;26.48;59.88
51123;BME280;37162;41.724;13.346;2022-07-29T09:21:48;96702.97;;;26.44;60.12
51123;BME280;37162;41.724;13.346;2022-07-29T09:24:42;96708.88;;;26.51;59.99
51123;BME280;37162;41.724;13.346;2022-07-29T09:27:23;96705.84;;;26.53;59.83
51123;BME280;37162;41.724;13.346;2022-07-29T09:30:08;96711.81;;;26.55;59.70
51123;BME280;37162;41.724;13.346;2022-07-29T09:32:57;96706.06;;;26.56;59.88
51123;BME280;37162;41.724;13.346;2022-07-29T09:35:24;96705.75;;;26.58;59.67
51123;BME280;37162;41.724;13.346;2022-07-29T09:37:51;96706.28;;;26.60;59.35
51123;BME280;37162;41.724;13.346;2022-07-29T09:40:22;96702.94;;;26.63;59.34
51123;BME280;37162;41.724;13.346;2022-07-29T09:42:49;96697.50;;;26.63;57.94
51123;BME280;37162;41.724;13.346;2022-07-29T09:45:31;96688.16;;;26.69;58.77
51123;BME280;37162;41.724;13.346;2022-07-29T09:47:58;96683.59;;;26.64;58.68
51123;BME280;37162;41.724;13.346;2022-07-29T09:50:42;96687.53;;;26.72;58.93
51123;BME280;37162;41.724;13.346;2022-07-29T09:53:08;96689.19;;;26.73;58.79
51123;BME280;37162;41.724;13.346;2022-07-29T09:55:51;96682.31;;;26.75;57.51
51123;BME280;37162;41.724;13.346;2022-07-29T10:00:43;96672.22;;;26.76;56.50
51123;BME280;37162;41.724;13.346;2022-07-29T10:03:09;96678.59;;;26.85;58.00
51123;BME280;37162;41.724;13.346;2022-07-29T10:05:34;96679.13;;;26.87;58.40
51123;BME280;37162;41.724;13.346;2022-07-29T10:07:59;96671.22;;;26.86;58.06
51123;BME280;37162;41.724;13.346;2022-07-29T10:10:27;96680.72;;;26.88;58.35
51123;BME280;37162;41.724;13.346;2022-07-29T10:15:24;96669.91;;;26.83;57.90
51123;BME280;37162;41.724;13.346;2022-07-29T10:17:51;96673.34;;;26.89;58.21
51123;BME280;37162;41.724;13.346;2022-07-29T10:20:17;96659.81;;;26.84;58.25
51123;BME280;37162;41.724;13.346;2022-07-29T10:22:43;96678.50;;;26.90;57.99
51123;BME280;37162;41.724;13.346;2022-07-29T10:25:09;96669.25;;;26.91;58.02
51123;BME280;37162;41.724;13.346;2022-07-29T10:27:35;96663.84;;;26.86;58.19
51123;BME280;37162;41.724;13.346;2022-07-29T10:30:02;96675.50;;;26.92;57.70
51123;BME280;37162;41.724;13.346;2022-07-29T10:44:05;96657.13;;;26.97;57.58
51123;BME280;37162;41.724;13.346;2022-07-29T10:46:39;96651.94;;;26.96;57.45
51123;BME280;37162;41.724;13.346;2022-07-29T10:49:12;96643.97;;;26.99;57.22
51123;BME280;37162;41.724;13.346;2022-07-29T10:54:15;96657.34;;;27.01;57.38
51123;BME280;37162;41.724;13.346;2022-07-29T10:56:41;96633.47;;;26.93;57.45
51123;BME280;37162;41.724;13.346;2022-07-29T11:01:52;96648.03;;;27.02;57.02
51123;BME280;37162;41.724;13.346;2022-07-29T11:07:08;96654.78;;;27.05;56.97
51123;BME280;37162;41.724;13.346;2022-07-29T11:09:34;96637.41;;;27.00;57.22
51123;BME280;37162;41.724;13.346;2022-07-29T11:11:59;96627.94;;;26.98;57.13
51123;BME280;37162;41.724;13.346;2022-07-29T11:17:19;96649.28;;;27.10;57.00
51123;BME280;37162;41.724;13.346;2022-07-29T11:19:44;96649.28;;;27.10;56.54
51123;BME280;37162;41.724;13.346;2022-07-29T11:22:11;96630.56;;;27.03;56.85
51123;BME280;37162;41.724;13.346;2022-07-29T11:24:37;96637.28;;;27.11;56.87
51123;BME280;37162;41.724;13.346;2022-07-29T11:30:10;96626.38;;;27.11;56.58
51123;BME280;37162;41.724;13.346;2022-07-29T11:32:41;96629.59;;;27.13;56.76
51123;BME280;37162;41.724;13.346;2022-07-29T11:35:14;96626.88;;;27.13;56.69
51123;BME280;37162;41.724;13.346;2022-07-29T11:37:40;96625.75;;;27.14;56.62
51123;BME280;37162;41.724;13.346;2022-07-29T11:47:28;96630.13;;;27.15;56.22
51123;BME280;37162;41.724;13.346;2022-07-29T11:49:55;96617.38;;;27.10;56.41
51123;BME280;37162;41.724;13.346;2022-07-29T11:52:22;96628.47;;;27.14;56.44
51123;BME280;37162;41.724;13.346;2022-07-29T11:54:49;96623.81;;;27.14;56.63
51123;BME280;37162;41.724;13.346;2022-07-29T11:57:17;96621.94;;;27.15;56.21
51123;BME280;37162;41.724;13.346;2022-07-29T11:59:45;96616.47;;;27.15;56.04
51123;BME280;37162;41.724;13.346;2022-07-29T12:02:12;96617.28;;;27.15;56.41
51123;BME280;37162;41.724;13.346;2022-07-29T12:04:52;96623.53;;;27.16;56.60
51123;BME280;37162;41.724;13.346;2022-07-29T12:07:19;96606.75;;;27.09;56.52
51123;BME280;37162;41.724;13.346;2022-07-29T12:09:52;96611.03;;;27.15;56.53
51123;BME280;37162;41.724;13.346;2022-07-29T12:12:18;96608.69;;;27.08;56.11
51123;BME280;37162;41.724;13.346;2022-07-29T12:14:44;96620.00;;;27.15;56.27
51123;BME280;37162;41.724;13.346;2022-07-29T12:19:55;96616.47;;;27.15;56.27
51123;BME280;37162;41.724;13.346;2022-07-29T12:22:31;96615.47;;;27.11;55.80
51123;BME280;37162;41.724;13.346;2022-07-29T12:25:17;96619.50;;;27.13;55.96
51123;BME280;37162;41.724;13.346;2022-07-29T12:27:44;96611.31;;;27.13;56.15
51123;BME280;37162;41.724;13.346;2022-07-29T12:30:14;96614.84;;;27.14;56.27
51123;BME280;37162;41.724;13.346;2022-07-29T12:32:44;96620.28;;;27.14;56.32
51123;BME280;37162;41.724;13.346;2022-07-29T12:35:14;96617.56;;;27.14;56.10
51123;BME280;37162;41.724;13.346;2022-07-29T12:37:41;96614.84;;;27.14;56.33
51123;BME280;37162;41.724;13.346;2022-07-29T12:40:08;96611.31;;;27.13;55.92
51123;BME280;37162;41.724;13.346;2022-07-29T12:42:34;96611.63;;;27.12;56.02
51123;BME280;37162;41.724;13.346;2022-07-29T12:45:00;96597.53;;;27.05;56.14
51123;BME280;37162;41.724;13.346;2022-07-29T12:47:26;96606.16;;;27.12;56.02
51123;BME280;37162;41.724;13.346;2022-07-29T12:50:14;96602.63;;;27.11;55.98
51123;BME280;37162;41.724;13.346;2022-07-29T12:52:43;96599.16;;;27.06;55.89
51123;BME280;37162;41.724;13.346;2022-07-29T12:55:09;96604.03;;;27.09;55.89
51123;BME280;37162;41.724;13.346;2022-07-29T12:57:53;96603.22;;;27.08;55.98
51123;BME280;37162;41.724;13.346;2022-07-29T13:00:23;96610.56;;;27.08;56.00
51123;BME280;37162;41.724;13.346;2022-07-29T13:02:59;96589.06;;;27.06;55.79
51123;BME280;37162;41.724;13.346;2022-07-29T13:05:43;96603.78;;;27.05;56.31
51123;BME280;37162;41.724;13.346;2022-07-29T13:08:16;96588.94;;;26.97;56.07
51123;BME280;37162;41.724;13.346;2022-07-29T13:10:43;96574.72;;;26.87;56.02
51123;BME280;37162;41.724;13.346;2022-07-29T13:13:13;96601.38;;;27.04;56.11
51123;BME280;37162;41.724;13.346;2022-07-29T13:15:45;96594.09;;;26.99;55.93
51123;BME280;37162;41.724;13.346;2022-07-29T13:18:33;96598.44;;;27.00;56.08
51123;BME280;37162;41.724;13.346;2022-07-29T13:21:15;96595.22;;;26.98;55.93
51123;BME280;37162;41.724;13.346;2022-07-29T13:23:41;96590.97;;;26.92;55.22
51123;BME280;37162;41.724;13.346;2022-07-29T13:26:07;96571.25;;;26.81;56.40
51123;BME280;37162;41.724;13.346;2022-07-29T13:28:33;96584.41;;;26.93;56.40
51123;BME280;37162;41.724;13.346;2022-07-29T13:30:59;96577.13;;;26.88;56.42
51123;BME280;37162;41.724;13.346;2022-07-29T13:33:25;96584.72;;;26.91;56.23
51123;BME280;37162;41.724;13.346;2022-07-29T13:35:51;96583.06;;;26.90;56.52
51123;BME280;37162;41.724;13.346;2022-07-29T13:38:16;96576.00;;;26.89;56.35
51123;BME280;37162;41.724;13.346;2022-07-29T13:40:42;96572.47;;;26.89;56.36
51123;BME280;37162;41.724;13.346;2022-07-29T13:43:11;96570.06;;;26.87;56.64
51123;BME280;37162;41.724;13.346;2022-07-29T13:45:37;96569.25;;;26.87;56.48
51123;BME280;37162;41.724;13.346;2022-07-29T13:48:03;96560.25;;;26.86;56.43
51123;BME280;37162;41.724;13.346;2022-07-29T13:50:29;96557.84;;;26.85;56.42
51123;BME280;37162;41.724;13.346;2022-07-29T13:52:54;96551.78;;;26.74;56.66
51123;BME280;37162;41.724;13.346;2022-07-29T13:55:20;96556.59;;;26.77;56.78